Time;durP1;ratioP1;P1;durP2;ratioP2;P2;SDS_P1;SDS_P2;PMS_P1;PMS_P2;Temp;Humidity;BMP_temperature;BMP_pressure;BME280_temperature;BME280_humidity;BME280_pressure;Samples;Min_cycle;Max_cycle;Signal;HPM_P1;HPM_P2
2023/07/01 07:55:59;;;;;;;3.10;2.45;;;;;;;28.21;38.32;99900.22;2120070;27;20118;-79
2023/07/01 07:57:02;;;;;;;17.08;8.90;;;;;;;28.29;37.67;99900.94;2103163;27;20040;-82
2023/07/01 07:58:07;;;;;;;4.38;1.80;;;;;;;28.30;36.57;99908.03;2110235;27;20020;-81
2023/07/01 07:59:09;;;;;;;6.50;1.60;;;;;;;28.10;37.25;99905.13;2107368;27;20024;-87
2023/07/01 08:00:13;;;;;;;4.50;1.75;;;;;;;27.99;38.45;99893.41;2098169;27;20040;-80
2023/07/01 08:01:18;;;;;;;6.88;1.35;;;;;;;27.78;38.37;99903.53;2105478;27;20853;-80
2023/07/01 08:02:21;;;;;;;4.88;1.40;;;;;;;27.68;39.47;99902.44;2088283;28;20029;-80
2023/07/01 08:03:23;;;;;;;4.72;1.23;;;;;;;27.54;38.52;99908.09;2105974;27;20171;-78
2023/07/01 08:04:29;;;;;;;7.68;1.58;;;;;;;27.45;37.80;99900.28;2112917;27;20959;-76
2023/07/01 08:05:31;;;;;;;7.60;1.05;;;;;;;27.35;37.67;99890.13;2098301;27;20024;-77
2023/07/01 08:06:35;;;;;;;2.20;1.00;;;;;;;27.32;37.04;99896.47;2113412;27;20027;-75
2023/07/01 08:07:39;;;;;;;9.75;1.20;;;;;;;27.21;37.67;99902.09;2113880;27;20149;-82
2023/07/01 08:08:45;;;;;;;4.35;1.23;;;;;;;27.11;37.81;99910.41;2105107;27;20980;-75
2023/07/01 08:09:47;;;;;;;4.55;1.65;;;;;;;26.95;38.59;99900.69;2104800;27;20028;-77
2023/07/01 08:10:53;;;;;;;4.05;1.23;;;;;;;26.92;38.71;99890.44;2097246;27;20112;-82
2023/07/01 08:12:04;;;;;;;1.92;1.00;;;;;;;26.81;38.92;99896.06;2102102;27;20068;-88
2023/07/01 08:13:17;;;;;;;4.30;1.20;;;;;;;26.80;38.98;99905.53;2115400;27;20854;-77
2023/07/01 08:14:21;;;;;;;4.82;1.02;;;;;;;26.71;38.46;99899.69;2104533;27;20218;-75
2023/07/01 08:15:24;;;;;;;2.20;0.90;;;;;;;26.60;37.79;99912.75;2104398;27;20146;-73
2023/07/01 08:16:31;;;;;;;7.43;2.00;;;;;;;26.49;37.84;99901.78;2103522;27;21296;-78
2023/07/01 08:17:33;;;;;;;9.30;1.50;;;;;;;26.47;38.67;99909.63;2113333;27;20130;-74
2023/07/01 08:18:35;;;;;;;1.00;0.75;;;;;;;26.44;38.36;99896.66;2095430;28;20029;-80
2023/07/01 08:19:39;;;;;;;4.43;1.30;;;;;;;26.30;38.41;99902.25;2096698;27;20029;-75
2023/07/01 08:20:41;;;;;;;3.53;1.00;;;;;;;26.22;38.41;99897.97;2113348;27;20012;-77
2023/07/01 08:21:43;;;;;;;3.75;1.00;;;;;;;26.07;38.98;99900.78;2103435;27;20028;-77
2023/07/01 08:22:52;;;;;;;2.42;1.00;;;;;;;25.92;38.69;99901.25;2104013;27;20150;-77
2023/07/01 08:23:55;;;;;;;4.55;0.88;;;;;;;25.76;38.58;99904.41;2121280;27;20223;-77
2023/07/01 08:25:02;;;;;;;14.55;8.32;;;;;;;25.75;39.51;99898.09;2121223;27;20207;-77
2023/07/01 08:26:06;;;;;;;3.17;1.30;;;;;;;25.73;39.59;99894.97;2117501;27;20152;-77
2023/07/01 08:27:11;;;;;;;3.63;2.38;;;;;;;25.72;40.91;99892.59;1174976;27;10001686;-79
2023/07/01 08:28:16;;;;;;;8.07;3.13;;;;;;;25.66;41.23;99893.03;2086375;28;20045;-77
2023/07/01 08:29:20;;;;;;;3.05;1.00;;;;;;;25.56;41.38;99893.81;2079346;28;20331;-78
2023/07/01 08:30:24;;;;;;;1.52;1.00;;;;;;;25.54;41.46;99898.16;2096564;28;20369;-76
2023/07/01 08:31:31;;;;;;;9.65;1.10;;;;;;;25.47;40.56;99898.94;2097860;28;20029;-75
2023/07/01 08:32:33;;;;;;;3.78;1.30;;;;;;;25.42;40.64;99897.38;2088909;28;20106;-76
2023/07/01 08:33:36;;;;;;;13.38;2.03;;;;;;;25.45;41.04;99895.81;2099900;27;21284;-76
2023/07/01 08:34:39;;;;;;;2.25;1.35;;;;;;;25.47;40.08;99892.66;2098042;28;20036;-76
2023/07/01 08:35:41;;;;;;;1.85;1.20;;;;;;;25.41;39.83;99903.28;2099179;27;20289;-74
2023/07/01 08:36:45;;;;;;;5.32;1.10;;;;;;;25.39;39.70;99897.38;2090028;28;20955;-78
2023/07/01 08:37:49;;;;;;;3.63;1.35;;;;;;;25.39;40.58;99900.94;2083027;28;20140;-77
2023/07/01 08:38:51;;;;;;;4.43;1.38;;;;;;;25.28;41.18;99891.09;2090594;28;20036;-76
2023/07/01 08:39:56;;;;;;;3.95;1.05;;;;;;;25.18;40.68;99895.44;2089754;28;20057;-76
2023/07/01 08:41:07;;;;;;;3.85;1.27;;;;;;;25.14;41.98;99894.66;2074694;28;20033;-74
2023/07/01 08:42:13;;;;;;;2.83;1.00;;;;;;;25.15;41.17;99891.50;2085536;28;20040;-78
2023/07/01 08:43:17;;;;;;;2.33;1.30;;;;;;;25.18;41.80;99893.47;2098243;27;20201;-79
2023/07/01 08:44:23;;;;;;;3.15;1.15;;;;;;;25.20;41.63;99888.38;2089248;28;20137;-79
2023/07/01 08:45:29;;;;;;;6.68;1.17;;;;;;;25.39;41.13;99892.66;2084357;28;20732;-77
2023/07/01 08:46:31;;;;;;;5.93;0.90;;;;;;;25.51;39.97;99888.72;2091429;28;20048;-78
2023/07/01 08:47:34;;;;;;;7.10;1.20;;;;;;;25.55;40.26;99889.50;2098981;28;20028;-75
2023/07/01 08:48:38;;;;;;;2.10;0.80;;;;;;;25.57;38.87;99881.63;2098030;28;20032;-78
2023/07/01 08:49:44;;;;;;;3.45;1.10;;;;;;;25.56;39.11;99873.75;2094475;27;20044;-76
2023/07/01 08:51:08;;;;;;;3.63;0.90;;;;;;;25.57;39.08;99892.66;2102778;27;20222;-76
2023/07/01 08:52:13;;;;;;;6.00;1.40;;;;;;;25.63;39.14;99880.06;2092109;28;20183;-78
2023/07/01 08:53:19;;;;;;;2.90;1.00;;;;;;;25.62;39.51;99867.44;2092605;27;20025;-78
2023/07/01 08:54:23;;;;;;;2.25;0.90;;;;;;;25.71;38.19;99874.50;2097955;28;20048;-73
2023/07/01 08:55:27;;;;;;;4.05;1.10;;;;;;;25.65;38.59;99861.16;2090400;28;20048;-74
2023/07/01 08:56:30;;;;;;;3.03;0.90;;;;;;;25.71;38.59;99871.75;2098252;27;21246;-76
2023/07/01 08:57:32;;;;;;;2.15;0.90;;;;;;;25.69;37.94;99871.38;2091155;28;20032;-83
2023/07/01 08:58:36;;;;;;;3.08;1.00;;;;;;;25.63;38.16;99873.72;2071392;28;20399;-74
2023/07/01 08:59:42;;;;;;;3.72;1.10;;;;;;;25.63;39.43;99885.56;2074533;28;20156;-83
2023/07/01 09:00:44;;;;;;;4.70;1.05;;;;;;;25.65;39.21;99866.66;2078936;28;20929;-79
2023/07/01 09:01:46;;;;;;;3.00;1.20;;;;;;;25.64;39.15;99853.31;2073429;28;20034;-77
2023/07/01 09:02:51;;;;;;;5.78;0.82;;;;;;;25.76;37.87;99866.63;2075262;28;20100;-82
2023/07/01 09:03:53;;;;;;;2.63;1.10;;;;;;;25.77;38.13;99865.44;2087466;28;21306;-85
2023/07/01 09:04:58;;;;;;;5.85;2.08;;;;;;;25.82;38.30;99870.59;2083081;28;21285;-84
2023/07/01 09:06:06;;;;;;;1.70;0.90;;;;;;;25.80;37.30;99866.63;2067775;28;20155;-78
2023/07/01 09:07:12;;;;;;;5.60;1.42;;;;;;;25.72;37.82;99876.06;2064329;28;20038;-79
2023/07/01 09:08:16;;;;;;;7.53;3.90;;;;;;;25.58;39.18;99860.41;2069453;28;20863;-74
2023/07/01 09:09:18;;;;;;;2.90;1.30;;;;;;;25.64;38.87;99867.84;2073491;28;20042;-81
2023/07/01 09:10:22;;;;;;;2.60;1.30;;;;;;;25.54;39.71;99865.91;2072339;28;20026;-85
2023/07/01 09:11:24;;;;;;;6.28;1.70;;;;;;;25.56;40.22;99865.50;2071128;28;20037;-81
2023/07/01 09:12:30;;;;;;;2.15;1.40;;;;;;;25.57;39.98;99864.34;2057340;28;20027;-78
2023/07/01 09:13:31;;;;;;;1.88;1.10;;;;;;;25.63;40.39;99869.03;2077962;28;20044;-77
2023/07/01 09:15:12;;;;;;;2.80;1.10;;;;;;;25.72;40.83;99862.31;2089219;28;20033;-75
2023/07/01 09:16:33;;;;;;;2.55;1.35;;;;;;;25.74;39.68;99862.72;2085161;28;20052;-88
2023/07/01 09:17:42;;;;;;;4.45;0.90;;;;;;;25.78;39.86;99864.25;2065147;28;20031;-75
2023/07/01 09:18:48;;;;;;;2.28;1.13;;;;;;;25.80;40.26;99858.38;2070756;28;20038;-82
2023/07/01 09:19:52;;;;;;;2.90;0.80;;;;;;;25.82;40.66;99854.06;2073186;28;20029;-79
2023/07/01 09:20:56;;;;;;;2.42;1.00;;;;;;;25.93;39.22;99864.25;2076148;28;20034;-81
2023/07/01 09:22:18;;;;;;;6.72;1.58;;;;;;;25.92;40.50;99857.97;2087235;28;20025;-83
2023/07/01 09:23:35;;;;;;;4.32;1.20;;;;;;;25.91;40.93;99861.88;2085174;28;20122;-79
2023/07/01 09:24:38;;;;;;;2.20;0.90;;;;;;;25.81;39.32;99865.47;2069380;28;20855;-78
2023/07/01 09:25:42;;;;;;;3.67;1.30;;;;;;;25.59;40.21;99857.22;2072342;28;20045;-82
2023/07/01 09:26:52;;;;;;;2.88;1.00;;;;;;;25.45;39.60;99857.28;2098101;28;20059;-86
2023/07/01 09:27:56;;;;;;;3.47;1.63;;;;;;;25.45;41.37;99857.28;2081384;28;20852;-77
2023/07/01 09:29:07;;;;;;;5.50;1.75;;;;;;;25.50;40.77;99853.31;2081109;28;20033;-76
2023/07/01 09:30:28;;;;;;;3.25;1.58;;;;;;;25.64;40.05;99854.09;2084358;28;20040;-84
2023/07/01 09:31:44;;;;;;;3.42;1.35;;;;;;;25.55;40.85;99853.72;2086276;28;20038;-82
2023/07/01 09:32:47;;;;;;;4.07;1.58;;;;;;;25.47;40.21;99860.41;2078877;28;20312;-80
2023/07/01 09:34:02;;;;;;;4.65;2.20;;;;;;;25.48;40.97;99859.25;2077484;28;20184;-77
2023/07/01 09:35:05;;;;;;;5.90;1.65;;;;;;;25.42;40.87;99852.56;2076589;28;20029;-79
2023/07/01 09:36:09;;;;;;;3.78;1.60;;;;;;;25.38;40.50;99863.59;2068168;28;20167;-85
2023/07/01 09:37:18;;;;;;;2.67;1.20;;;;;;;25.41;40.16;99851.00;2068651;28;20033;-80
2023/07/01 09:38:28;;;;;;;7.47;3.58;;;;;;;25.35;40.74;99860.84;2080761;28;20040;-81
2023/07/01 09:39:34;;;;;;;6.57;2.42;;;;;;;25.37;41.09;99858.47;2079645;28;20176;-75
2023/07/01 09:40:36;;;;;;;11.95;4.75;;;;;;;25.32;41.38;99865.16;2069427;28;20952;-76
2023/07/01 09:41:39;;;;;;;3.85;1.67;;;;;;;25.25;40.19;99859.66;2073537;28;20036;-76
2023/07/01 09:42:58;;;;;;;5.82;2.95;;;;;;;25.17;40.63;99861.63;2084140;28;20033;-73
2023/07/01 09:44:13;;;;;;;4.80;2.00;;;;;;;25.15;39.80;99855.75;2067644;28;20093;-79
2023/07/01 09:45:15;;;;;;;3.40;1.15;;;;;;;25.20;40.01;99852.59;2067678;28;20047;-77
2023/07/01 09:46:20;;;;;;;2.72;1.30;;;;;;;25.25;41.77;99861.63;2079314;28;20103;-78
2023/07/01 09:47:27;;;;;;;6.90;1.30;;;;;;;25.34;41.47;99848.25;2078995;28;20995;-81
2023/07/01 09:48:32;;;;;;;3.38;1.10;;;;;;;25.41;41.07;99853.75;2073759;28;20030;-77
2023/07/01 09:49:39;;;;;;;3.58;1.13;;;;;;;25.51;40.41;99847.44;2070854;28;20100;-73
2023/07/01 09:50:42;;;;;;;5.80;1.35;;;;;;;25.56;40.37;99847.00;2077375;28;20156;-75
2023/07/01 09:51:50;;;;;;;3.28;1.63;;;;;;;25.60;40.13;99853.31;2053587;28;20039;-73
2023/07/01 09:52:53;;;;;;;2.05;0.90;;;;;;;25.63;39.23;99847.03;2067454;28;20029;-76
2023/07/01 09:53:55;;;;;;;4.20;2.05;;;;;;;25.64;39.67;99847.78;2075449;28;20159;-74
2023/07/01 09:54:57;;;;;;;7.15;1.60;;;;;;;25.58;40.01;99850.16;2076665;28;20435;-73
2023/07/01 09:56:06;;;;;;;5.18;1.13;;;;;;;25.46;39.67;99842.31;2083912;28;20044;-75
2023/07/01 09:57:08;;;;;;;2.90;1.20;;;;;;;25.27;39.39;99840.00;2084371;28;20044;-74
2023/07/01 09:58:13;;;;;;;3.53;1.80;;;;;;;25.14;40.33;99854.19;2075588;28;20899;-80
2023/07/01 09:59:16;;;;;;;3.65;1.40;;;;;;;25.11;40.80;99845.91;2077504;28;20904;-79
2023/07/01 10:00:20;;;;;;;2.53;1.13;;;;;;;25.09;40.07;99840.00;2069139;28;20037;-76
2023/07/01 10:01:23;;;;;;;4.82;2.50;;;;;;;25.12;40.62;99840.03;2077051;28;20166;-75
2023/07/01 10:02:25;;;;;;;7.22;2.03;;;;;;;25.16;41.00;99840.81;2066359;28;20851;-76
2023/07/01 10:03:32;;;;;;;3.97;2.07;;;;;;;25.20;41.51;99836.09;1295554;28;10001040;-76
2023/07/01 10:04:34;;;;;;;4.68;1.95;;;;;;;25.25;41.27;99837.66;2059723;28;20313;-77
2023/07/01 10:05:35;;;;;;;4.75;1.30;;;;;;;25.28;40.36;99839.59;2058858;28;20037;-77
2023/07/01 10:06:38;;;;;;;4.78;2.38;;;;;;;25.31;39.98;99835.28;2067746;28;20049;-77
2023/07/01 10:07:44;;;;;;;3.72;1.58;;;;;;;25.31;40.09;99833.31;2066174;28;21182;-76
2023/07/01 10:08:49;;;;;;;7.28;1.75;;;;;;;25.29;39.61;99829.41;2059844;28;20295;-81
2023/07/01 10:09:58;;;;;;;11.25;7.13;;;;;;;25.24;39.70;99825.06;2067781;28;20152;-77
2023/07/01 10:11:23;;;;;;;12.60;7.88;;;;;;;25.18;38.91;99826.66;2059035;28;20045;-72
2023/07/01 10:12:29;;;;;;;4.38;2.28;;;;;;;25.01;39.13;99828.22;2057999;28;20060;-72
2023/07/01 10:13:34;;;;;;;4.32;1.60;;;;;;;24.81;39.74;99829.78;2066597;28;20120;-71
2023/07/01 10:14:35;;;;;;;2.60;1.48;;;;;;;24.73;39.93;99823.53;2058381;28;20057;-70
2023/07/01 10:15:39;;;;;;;3.35;1.70;;;;;;;24.68;40.47;99818.41;2050909;28;20070;-70
2023/07/01 10:16:47;;;;;;;3.53;2.08;;;;;;;24.54;40.88;99824.69;2049994;28;20042;-71
2023/07/01 10:17:57;;;;;;;3.85;1.17;;;;;;;24.53;40.10;99820.38;2062045;28;20027;-73
2023/07/01 10:19:30;;;;;;;3.13;1.15;;;;;;;24.60;39.14;99820.38;1163919;28;10001447;-71
2023/07/01 10:20:34;;;;;;;5.03;1.42;;;;;;;24.60;38.92;99819.59;2051369;28;21174;-70
2023/07/01 10:21:36;;;;;;;2.70;1.23;;;;;;;24.61;39.78;99813.69;2056034;28;21683;-72
2023/07/01 10:22:53;;;;;;;2.80;0.82;;;;;;;24.58;39.36;99808.19;2066657;28;20181;-72
2023/07/01 10:23:59;;;;;;;3.38;1.30;;;;;;;24.55;39.77;99817.22;2060636;28;20065;-71
2023/07/01 10:25:06;;;;;;;11.93;1.60;;;;;;;24.54;40.81;99810.94;2065913;28;20054;-72
2023/07/01 10:26:36;;;;;;;3.65;0.98;;;;;;;24.50;40.75;99816.44;2058387;28;20224;-70
2023/07/01 10:27:39;;;;;;;3.53;1.30;;;;;;;24.52;40.49;99803.06;2058594;28;20029;-77
2023/07/01 10:28:41;;;;;;;3.25;1.25;;;;;;;24.57;40.68;99807.41;2053097;28;20049;-72
2023/07/01 10:29:54;;;;;;;2.10;1.00;;;;;;;24.57;40.82;99803.88;2053499;28;20047;-73
2023/07/01 10:30:55;;;;;;;3.70;1.10;;;;;;;24.52;41.10;99796.78;2054994;28;20161;-72
2023/07/01 10:32:25;;;;;;;2.33;0.90;;;;;;;24.57;40.64;99798.38;2060911;28;20175;-71
2023/07/01 10:33:27;;;;;;;3.38;1.08;;;;;;;24.50;41.45;99802.69;2060742;28;20168;-70
2023/07/01 10:35:01;;;;;;;2.55;1.95;;;;;;;24.59;41.04;99793.25;2052083;28;20039;-70
2023/07/01 10:36:04;;;;;;;1.98;1.20;;;;;;;24.59;40.90;99804.25;2049938;28;20105;-72
2023/07/01 10:37:12;;;;;;;2.65;0.90;;;;;;;24.48;39.17;99807.00;2051007;28;20196;-72
2023/07/01 10:38:22;;;;;;;1.42;0.95;;;;;;;24.55;40.01;99807.00;2045176;28;20602;-72
2023/07/01 10:39:33;;;;;;;4.03;1.00;;;;;;;24.45;38.02;99802.28;2059298;28;20038;-72
2023/07/01 10:40:43;;;;;;;3.13;1.10;;;;;;;24.35;38.66;99797.56;2057159;28;20093;-72
2023/07/01 10:41:52;;;;;;;4.78;1.63;;;;;;;24.41;39.75;99802.28;2042141;28;20031;-72
2023/07/01 10:43:13;;;;;;;2.13;1.02;;;;;;;24.46;40.97;99796.44;2043660;28;20065;-72
2023/07/01 10:44:23;;;;;;;2.72;1.20;;;;;;;24.51;41.28;99801.50;2052594;28;21066;-72
2023/07/01 10:45:28;;;;;;;3.15;1.65;;;;;;;24.54;40.53;99797.19;2043082;28;20636;-72
2023/07/01 10:46:32;;;;;;;2.42;1.05;;;;;;;24.59;40.32;99791.31;2049187;28;20018;-72
2023/07/01 10:47:35;;;;;;;4.63;1.50;;;;;;;24.62;40.47;99787.78;2050588;28;20116;-72
2023/07/01 10:49:00;;;;;;;4.60;1.35;;;;;;;24.63;40.50;99786.59;2051181;28;20027;-72
2023/07/01 10:50:14;;;;;;;1.52;0.80;;;;;;;24.71;40.50;99788.16;2047957;28;20142;-72
2023/07/01 10:51:16;;;;;;;5.53;1.35;;;;;;;24.68;40.26;99777.94;2038704;28;20106;-72
2023/07/01 10:52:19;;;;;;;2.17;1.10;;;;;;;24.77;40.03;99790.53;2049484;28;20177;-72
2023/07/01 10:53:20;;;;;;;2.92;1.10;;;;;;;24.78;39.92;99781.91;2042748;28;20039;-72
2023/07/01 10:54:39;;;;;;;4.22;1.20;;;;;;;24.76;39.35;99787.00;2035602;28;20397;-72
2023/07/01 10:55:47;;;;;;;2.60;1.10;;;;;;;24.76;39.16;99783.47;2045028;28;20043;-72
2023/07/01 10:57:10;;;;;;;2.55;1.15;;;;;;;24.72;38.57;99775.22;2050515;28;20128;-72
2023/07/01 10:58:18;;;;;;;2.03;0.98;;;;;;;24.69;38.68;99776.78;2048521;28;20059;-69
2023/07/01 10:59:26;;;;;;;2.33;1.10;;;;;;;24.65;39.49;99767.78;2044543;28;20046;-72
2023/07/01 11:00:39;;;;;;;1.85;1.10;;;;;;;24.60;39.96;99787.38;2051305;28;20358;-72
2023/07/01 11:01:45;;;;;;;3.10;1.10;;;;;;;24.63;40.48;99775.63;2037468;28;20049;-72
2023/07/01 11:02:52;;;;;;;4.05;1.40;;;;;;;24.68;40.20;99771.66;2042827;28;20847;-72
2023/07/01 11:03:54;;;;;;;4.00;1.27;;;;;;;24.67;39.67;99784.63;2041222;28;20039;-72
2023/07/01 11:05:01;;;;;;;4.10;1.50;;;;;;;24.69;39.57;99768.53;2039136;28;20024;-70
2023/07/01 11:06:08;;;;;;;3.78;1.73;;;;;;;24.67;40.48;99770.91;2051749;28;20046;-70
2023/07/01 11:07:10;;;;;;;3.08;0.98;;;;;;;24.62;39.35;99768.56;2052534;28;20034;-71
2023/07/01 11:08:17;;;;;;;1.92;1.00;;;;;;;24.59;39.14;99761.09;2043506;28;21736;-71
2023/07/01 11:09:27;;;;;;;2.00;1.02;;;;;;;24.51;39.40;99765.00;2053221;28;20074;-71
2023/07/01 11:10:29;;;;;;;2.80;1.10;;;;;;;24.51;39.10;99773.25;2060715;28;20037;-70
2023/07/01 11:11:32;;;;;;;2.75;1.50;;;;;;;24.49;39.58;99770.09;2060783;28;20038;-72
2023/07/01 11:12:34;;;;;;;3.80;1.20;;;;;;;24.51;39.53;99771.28;2059138;28;20298;-71
2023/07/01 11:13:39;;;;;;;2.20;1.05;;;;;;;24.50;40.07;99760.69;2059586;28;20140;-71
2023/07/01 11:14:41;;;;;;;1.63;1.20;;;;;;;24.51;40.22;99765.00;2059889;28;20085;-71
2023/07/01 11:15:45;;;;;;;1.88;1.30;;;;;;;24.51;39.79;99763.03;2052312;28;21508;-70
2023/07/01 11:16:48;;;;;;;2.13;1.13;;;;;;;24.45;39.73;99763.81;2044911;28;20878;-70
2023/07/01 11:17:56;;;;;;;3.17;1.33;;;;;;;24.45;39.51;99758.34;2043187;28;20027;-69
2023/07/01 11:19:01;;;;;;;3.33;1.10;;;;;;;24.49;39.53;99762.63;2052264;28;20265;-72
2023/07/01 11:20:05;;;;;;;2.28;1.10;;;;;;;24.51;39.91;99765.00;2052231;28;20068;-71
2023/07/01 11:21:26;;;;;;;4.82;1.40;;;;;;;24.51;39.94;99767.75;2044726;28;20039;-72
2023/07/01 11:22:29;;;;;;;2.17;1.00;;;;;;;24.52;39.68;99769.31;2040021;28;20173;-71
2023/07/01 11:23:31;;;;;;;2.50;1.45;;;;;;;24.42;39.65;99759.13;2060421;28;20895;-72
2023/07/01 11:24:34;;;;;;;4.57;1.73;;;;;;;24.37;39.88;99768.50;2077359;28;20210;-71
2023/07/01 11:25:49;;;;;;;3.08;1.83;;;;;;;24.34;39.91;99763.00;2083492;28;20856;-71
2023/07/01 11:26:51;;;;;;;4.10;1.63;;;;;;;24.25;40.26;99750.44;2068334;28;20041;-71
2023/07/01 11:27:53;;;;;;;7.47;1.45;;;;;;;24.25;40.21;99760.66;2071699;28;20073;-71
2023/07/01 11:29:00;;;;;;;2.88;1.20;;;;;;;24.18;40.66;99766.91;2068831;28;20143;-71
2023/07/01 11:30:02;;;;;;;2.05;1.30;;;;;;;24.18;41.36;99755.13;2064231;28;20034;-71
2023/07/01 11:31:16;;;;;;;2.97;1.30;;;;;;;24.15;40.45;99756.72;2075936;28;20105;-71
2023/07/01 11:32:18;;;;;;;2.25;1.30;;;;;;;24.19;40.54;99757.50;2085391;28;20035;-71
2023/07/01 11:33:23;;;;;;;3.60;1.27;;;;;;;24.12;40.88;99752.00;2085471;28;20080;-71
2023/07/01 11:34:27;;;;;;;1.88;1.17;;;;;;;24.10;40.62;99759.84;2067324;28;20092;-71
2023/07/01 11:35:49;;;;;;;3.85;1.52;;;;;;;24.09;39.97;99752.78;2071434;28;20027;-71
2023/07/01 11:36:54;;;;;;;3.33;1.20;;;;;;;24.03;39.66;99751.59;2069021;28;20045;-71
2023/07/01 11:37:56;;;;;;;4.38;1.30;;;;;;;24.05;39.88;99752.78;2045972;28;20138;-71
2023/07/01 11:39:04;;;;;;;8.70;1.63;;;;;;;24.04;41.09;99755.91;2053044;28;20066;-71
2023/07/01 11:40:10;;;;;;;5.25;2.22;;;;;;;24.01;41.25;99751.19;2077208;28;20051;-71
2023/07/01 11:41:23;;;;;;;3.97;1.60;;;;;;;24.03;41.20;99754.34;2089111;28;20024;-71
2023/07/01 11:42:28;;;;;;;5.20;1.30;;;;;;;24.00;41.65;99744.91;2074936;28;20038;-72
2023/07/01 11:43:36;;;;;;;5.13;1.70;;;;;;;23.97;41.35;99745.69;2077237;28;20085;-71
2023/07/01 11:44:40;;;;;;;3.05;1.80;;;;;;;23.98;41.62;99757.44;2078198;28;20034;-71
2023/07/01 11:45:46;;;;;;;2.67;1.70;;;;;;;24.03;41.67;99754.34;2061472;28;20050;-71
2023/07/01 11:46:47;;;;;;;3.92;1.50;;;;;;;24.08;41.51;99742.16;2068279;28;20034;-71
2023/07/01 11:47:49;;;;;;;2.78;1.30;;;;;;;24.09;42.31;99746.50;2075290;28;20050;-71
2023/07/01 11:48:56;;;;;;;2.60;1.50;;;;;;;24.06;41.97;99753.56;2077780;28;20052;-71
2023/07/01 11:50:03;;;;;;;2.83;1.40;;;;;;;24.08;41.61;99748.44;2076930;28;20045;-71
2023/07/01 11:51:06;;;;;;;3.03;1.75;;;;;;;24.10;41.65;99743.34;2076677;28;20168;-71
2023/07/01 11:52:21;;;;;;;3.17;1.40;;;;;;;24.13;41.77;99744.53;2083455;28;21320;-72
2023/07/01 11:53:23;;;;;;;7.88;2.00;;;;;;;24.10;42.37;99748.84;2083064;28;20175;-71
2023/07/01 11:54:37;;;;;;;2.65;1.50;;;;;;;24.12;41.69;99740.19;2067397;28;20955;-72
2023/07/01 11:55:40;;;;;;;2.80;1.40;;;;;;;24.15;41.51;99745.72;2077681;28;20136;-71
2023/07/01 11:57:06;;;;;;;3.15;1.38;;;;;;;24.15;42.02;99745.72;2083311;28;20033;-71
2023/07/01 11:58:31;;;;;;;2.33;1.60;;;;;;;24.21;42.23;99746.09;2072796;28;21654;-71
2023/07/01 11:59:35;;;;;;;3.42;1.40;;;;;;;24.21;42.44;99743.34;2072718;28;20033;-71
2023/07/01 12:00:41;;;;;;;5.10;1.60;;;;;;;24.22;42.92;99739.44;2077264;28;20119;-71
2023/07/01 12:01:49;;;;;;;3.08;1.30;;;;;;;24.20;43.28;99730.81;2078284;28;20044;-71
2023/07/01 12:02:54;;;;;;;3.95;1.50;;;;;;;24.21;42.73;99740.59;2077142;28;20025;-71
2023/07/01 12:03:57;;;;;;;7.25;1.60;;;;;;;24.23;42.25;99736.31;2077928;28;20077;-71
2023/07/01 12:05:00;;;;;;;4.57;1.60;;;;;;;24.27;41.82;99737.13;2069106;28;20045;-70
2023/07/01 12:06:04;;;;;;;2.83;1.38;;;;;;;24.29;41.94;99723.75;2066110;28;20112;-71
2023/07/01 12:07:16;;;;;;;4.22;1.40;;;;;;;24.35;42.75;99728.88;2069516;28;20048;-71
2023/07/01 12:08:18;;;;;;;4.53;1.88;;;;;;;24.37;42.25;99727.31;2070502;28;20038;-71
2023/07/01 12:09:28;;;;;;;4.07;1.70;;;;;;;24.40;42.27;99728.47;2069065;28;20026;-71
2023/07/01 12:10:35;;;;;;;7.30;1.73;;;;;;;24.39;41.54;99726.91;2074147;28;20851;-70
2023/07/01 12:11:48;;;;;;;3.17;1.40;;;;;;;24.20;40.96;99723.34;2074564;28;20041;-71
2023/07/01 12:12:50;;;;;;;2.47;1.38;;;;;;;24.22;41.60;99728.47;2078410;28;20036;-71
2023/07/01 12:13:51;;;;;;;3.65;1.55;;;;;;;24.15;42.26;99718.25;2083658;28;20239;-71
2023/07/01 12:15:09;;;;;;;2.28;1.70;;;;;;;24.12;41.48;99730.03;2083542;28;20029;-71
2023/07/01 12:16:11;;;;;;;3.28;1.27;;;;;;;24.09;41.57;99725.31;2090740;28;20040;-71
2023/07/01 12:17:30;;;;;;;2.55;1.70;;;;;;;24.11;41.85;99722.94;2084979;28;20049;-71
2023/07/01 12:18:38;;;;;;;4.38;1.80;;;;;;;24.10;42.29;99721.38;2074308;28;20041;-71
2023/07/01 12:19:40;;;;;;;7.55;1.80;;;;;;;24.12;42.78;99724.53;2067684;28;20065;-71
2023/07/01 12:20:42;;;;;;;2.88;1.50;;;;;;;24.14;42.57;99719.41;2083386;28;20034;-71
2023/07/01 12:21:45;;;;;;;3.97;1.60;;;;;;;24.16;42.78;99728.06;2077661;28;21368;-71
2023/07/01 12:22:47;;;;;;;3.67;1.75;;;;;;;24.18;41.79;99716.66;2078916;28;20044;-71
2023/07/01 12:23:53;;;;;;;4.28;2.03;;;;;;;24.23;41.62;99714.31;2077805;28;20041;-70
2023/07/01 12:24:56;;;;;;;7.03;1.67;;;;;;;24.25;42.08;99706.50;2078868;28;20038;-71
2023/07/01 12:25:58;;;;;;;3.30;1.75;;;;;;;24.27;42.55;99704.16;2077635;28;20049;-71
2023/07/01 12:27:03;;;;;;;1.95;1.50;;;;;;;24.30;42.51;99708.06;2078174;28;20066;-71
2023/07/01 12:28:08;;;;;;;3.28;1.60;;;;;;;24.38;42.40;99706.88;2072599;28;20025;-71
2023/07/01 12:29:10;;;;;;;3.92;1.65;;;;;;;24.43;42.14;99712.03;2072187;28;20044;-71
2023/07/01 12:30:15;;;;;;;6.30;1.83;;;;;;;24.44;42.05;99701.81;2081342;28;21402;-71
2023/07/01 12:31:19;;;;;;;3.75;1.67;;;;;;;24.43;41.09;99716.72;2077132;28;20099;-71
2023/07/01 12:32:21;;;;;;;7.07;1.65;;;;;;;24.35;40.17;99691.19;2077121;28;20152;-71
2023/07/01 12:33:23;;;;;;;5.45;1.63;;;;;;;24.22;40.85;99706.50;2083156;28;20443;-71
2023/07/01 12:34:27;;;;;;;2.65;1.55;;;;;;;24.18;41.98;99698.25;2077716;28;20068;-71
2023/07/01 12:35:29;;;;;;;2.80;1.60;;;;;;;24.16;42.18;99708.06;2080212;28;20029;-71
2023/07/01 12:36:35;;;;;;;5.00;1.50;;;;;;;24.17;42.33;99704.13;2084946;28;20044;-71
2023/07/01 12:37:42;;;;;;;6.43;1.77;;;;;;;24.18;41.96;99701.00;2084768;28;20055;-72
2023/07/01 12:38:45;;;;;;;4.40;1.70;;;;;;;24.15;41.30;99692.72;2070240;28;20860;-71
2023/07/01 12:40:07;;;;;;;4.15;1.38;;;;;;;24.12;41.77;99708.06;2069466;28;20123;-72
2023/07/01 12:41:12;;;;;;;3.30;1.50;;;;;;;24.07;40.61;99693.91;2075776;28;20092;-71
2023/07/01 12:42:17;;;;;;;4.82;1.60;;;;;;;24.00;41.47;99691.97;2069207;28;20030;-70
2023/07/01 12:43:18;;;;;;;5.68;1.80;;;;;;;23.94;41.84;99686.06;2062358;28;20153;-70
2023/07/01 12:44:21;;;;;;;4.47;1.60;;;;;;;23.88;41.14;99693.09;2070104;28;20037;-71
2023/07/01 12:45:26;;;;;;;3.00;1.70;;;;;;;23.74;41.55;99693.88;2088131;28;20156;-71
2023/07/01 12:46:26;;;;;;;3.67;1.60;;;;;;;23.66;41.63;99692.25;2093303;28;21378;-71
2023/07/01 12:47:28;;;;;;;5.10;1.80;;;;;;;23.62;41.29;99680.47;2093067;28;20029;-71
2023/07/01 12:48:35;;;;;;;4.32;2.10;;;;;;;23.58;41.81;99685.97;2093336;28;20954;-71
2023/07/01 12:49:41;;;;;;;5.30;1.60;;;;;;;23.60;42.66;99674.59;2078406;28;20029;-71
2023/07/01 12:50:44;;;;;;;3.63;1.80;;;;;;;23.64;43.20;99688.31;2082136;28;20881;-71
2023/07/01 12:51:49;;;;;;;3.55;1.75;;;;;;;23.62;42.06;99685.97;2093239;28;20028;-71
2023/07/01 12:52:53;;;;;;;5.13;1.70;;;;;;;23.60;42.04;99680.84;2093110;28;20044;-70
2023/07/01 12:53:55;;;;;;;4.47;1.40;;;;;;;23.58;42.12;99688.72;2084710;28;20029;-70
2023/07/01 12:54:59;;;;;;;4.15;1.55;;;;;;;23.64;41.85;99683.59;2074692;28;20061;-71
2023/07/01 12:56:01;;;;;;;3.83;1.48;;;;;;;23.69;41.82;99686.00;2060716;28;20161;-72
2023/07/01 12:57:41;;;;;;;2.47;1.40;;;;;;;23.77;42.17;99670.34;2123872;27;20180;-70
2023/07/01 12:58:43;;;;;;;3.60;1.83;;;;;;;23.84;42.12;99669.59;2099999;28;20036;-74
2023/07/01 13:00:06;;;;;;;3.08;1.80;;;;;;;23.86;43.08;99669.97;2109078;27;20047;-71
2023/07/01 13:01:12;;;;;;;11.30;1.80;;;;;;;23.84;41.89;99675.06;2121983;27;20071;-70
2023/07/01 13:02:16;;;;;;;2.42;1.52;;;;;;;23.75;41.80;99656.22;2102006;27;20791;-70
2023/07/01 13:03:20;;;;;;;3.17;1.73;;;;;;;23.84;42.39;99683.31;2109988;27;20027;-71
2023/07/01 13:04:21;;;;;;;3.67;1.70;;;;;;;23.84;42.56;99667.63;2117140;27;20022;-73
2023/07/01 13:05:24;;;;;;;3.30;1.75;;;;;;;23.84;41.99;99675.06;2099408;27;20043;-73
2023/07/01 13:06:27;;;;;;;4.32;1.70;;;;;;;23.77;41.63;99665.66;2092003;27;20137;-73
2023/07/01 13:07:29;;;;;;;3.25;1.70;;;;;;;23.78;41.60;99669.97;1181023;27;10000763;-74
2023/07/01 13:08:31;;;;;;;4.88;1.73;;;;;;;23.84;42.07;99666.84;2078809;28;20152;-73